createdAt,value
2023-04-02T00:00:09.644Z,60.05
2023-04-02T00:03:22.338Z,60.29
2023-04-02T00:06:35.107Z,60.76
2023-04-02T00:09:42.644Z,60.78
2023-04-02T00:13:00.336Z,61.00
2023-04-02T00:16:05.714Z,59.96
2023-04-02T00:19:18.370Z,60.91
2023-04-02T00:22:28.053Z,60.76
2023-04-02T00:25:42.987Z,60.49
2023-04-02T00:28:45.361Z,61.32
2023-04-02T00:31:52.781Z,60.89
2023-04-02T00:34:58.372Z,60.91
2023-04-02T00:38:02.034Z,61.67
2023-04-02T00:41:21.239Z,61.57
2023-04-02T00:44:23.742Z,61.34
2023-04-02T00:47:32.696Z,61.06
2023-04-02T00:50:39.974Z,61.44
2023-04-02T00:53:48.185Z,61.69
2023-04-02T00:56:54.468Z,60.68
2023-04-02T01:00:09.018Z,61.21
2023-04-02T01:03:22.917Z,61.65
2023-04-02T01:06:34.376Z,60.92
2023-04-02T01:09:51.874Z,61.15
2023-04-02T01:13:23.250Z,61.91
2023-04-02T01:16:36.884Z,60.86
2023-04-02T01:20:33.391Z,61.11
2023-04-02T01:24:07.202Z,60.87
2023-04-02T01:27:27.218Z,61.62
2023-04-02T01:30:36.588Z,61.00
2023-04-02T01:33:41.581Z,61.64
2023-04-02T01:37:13.078Z,61.01
2023-04-02T01:40:50.425Z,61.53
2023-04-02T01:44:14.286Z,61.21
2023-04-02T01:47:20.428Z,62.16
2023-04-02T01:50:31.667Z,61.02
2023-04-02T01:53:40.428Z,61.67
2023-04-02T01:56:47.244Z,61.64
2023-04-02T01:59:49.772Z,61.81
2023-04-02T02:02:55.102Z,61.66
2023-04-02T02:05:58.223Z,62.18
2023-04-02T02:09:06.625Z,61.57
2023-04-02T02:12:14.967Z,61.68
2023-04-02T02:15:22.127Z,61.87
2023-04-02T02:18:27.927Z,61.60
2023-04-02T02:21:46.521Z,62.38
2023-04-02T02:24:54.523Z,62.17
2023-04-02T02:28:17.925Z,62.22
2023-04-02T02:31:33.195Z,63.22
2023-04-02T02:34:45.866Z,62.13
2023-04-02T02:37:57.221Z,62.92
2023-04-02T02:41:10.417Z,62.54
2023-04-02T02:44:28.728Z,62.62
2023-04-02T02:47:34.893Z,62.05
2023-04-02T02:50:41.218Z,62.32
2023-04-02T02:53:56.312Z,62.08
2023-04-02T02:57:04.319Z,62.41
2023-04-02T03:00:09.953Z,62.79
2023-04-02T03:03:24.986Z,62.98
2023-04-02T03:06:32.230Z,63.14
2023-04-02T03:09:57.271Z,62.87
2023-04-02T03:13:08.566Z,63.00
2023-04-02T03:16:13.199Z,63.25
2023-04-02T03:19:47.948Z,63.18
2023-04-02T03:23:01.262Z,63.08
2023-04-02T03:26:29.656Z,63.13
2023-04-02T03:29:42.280Z,63.23
2023-04-02T03:32:49.321Z,63.57
2023-04-02T03:35:57.955Z,63.10
2023-04-02T03:39:10.007Z,62.81
2023-04-02T03:42:18.384Z,63.29
2023-04-02T03:45:28.616Z,63.17
2023-04-02T03:48:40.911Z,63.27
2023-04-02T03:52:00.493Z,63.41
2023-04-02T03:55:15.914Z,63.72
2023-04-02T03:58:29.732Z,63.45
2023-04-02T04:02:02.602Z,63.57
2023-04-02T04:05:06.918Z,63.15
2023-04-02T04:08:17.690Z,63.64
2023-04-02T04:11:29.789Z,63.56
2023-04-02T04:14:38.576Z,64.44
2023-04-02T04:18:11.694Z,63.84
2023-04-02T04:21:30.269Z,63.90
2023-04-02T04:24:39.876Z,64.50
2023-04-02T04:28:08.745Z,63.83
2023-04-02T04:31:30.936Z,63.77
2023-04-02T04:34:51.505Z,64.02
2023-04-02T04:38:04.778Z,63.70
2023-04-02T04:41:28.964Z,64.55
2023-04-02T04:45:01.075Z,64.62
2023-04-02T04:48:05.997Z,64.72
2023-04-02T04:51:20.620Z,64.32
2023-04-02T04:54:31.107Z,64.90
2023-04-02T04:57:38.046Z,64.63
2023-04-02T05:00:54.550Z,64.22
2023-04-02T05:04:12.883Z,64.29
2023-04-02T05:07:27.858Z,64.39
2023-04-02T05:10:37.841Z,64.03
2023-04-02T05:13:52.581Z,64.42
2023-04-02T05:17:04.812Z,63.46
2023-04-02T05:20:16.435Z,62.89
2023-04-02T05:23:34.177Z,62.98
2023-04-02T05:26:50.439Z,62.42
2023-04-02T05:30:06.341Z,61.63
2023-04-02T05:33:27.869Z,60.85
2023-04-02T05:36:33.088Z,59.60
2023-04-02T05:39:36.660Z,57.87
2023-04-02T05:42:43.354Z,57.07
2023-04-02T05:45:53.842Z,56.02
2023-04-02T05:49:01.912Z,54.51
2023-04-02T05:52:13.997Z,53.58
2023-04-02T05:55:16.793Z,53.15
2023-04-02T06:01:45.706Z,51.82
2023-04-02T06:05:07.715Z,53.09
2023-04-02T06:08:17.383Z,53.11
2023-04-02T06:11:28.574Z,52.61
2023-04-02T06:14:32.140Z,51.81
2023-04-02T06:18:03.970Z,50.44
2023-04-02T06:21:06.557Z,49.63
2023-04-02T06:24:14.462Z,49.68
2023-04-02T06:27:20.162Z,48.67
2023-04-02T06:30:28.284Z,46.78
2023-04-02T06:33:31.958Z,45.55
2023-04-02T06:36:37.278Z,45.49
2023-04-02T06:39:43.164Z,43.43
2023-04-02T06:42:48.495Z,42.10
2023-04-02T06:46:28.303Z,41.93
2023-04-02T06:50:16.752Z,41.69
2023-04-02T06:53:26.562Z,43.44
2023-04-02T06:57:09.116Z,44.90
2023-04-02T07:00:47.555Z,43.64
2023-04-02T07:03:59.479Z,41.85
2023-04-02T07:07:10.303Z,40.35
2023-04-02T07:10:16.128Z,40.09
2023-04-02T07:13:22.991Z,40.06
2023-04-02T07:16:26.976Z,38.08
2023-04-02T07:19:32.286Z,36.82
2023-04-02T07:22:37.741Z,36.95
2023-04-02T07:25:43.058Z,36.81
2023-04-02T07:28:45.572Z,38.39
2023-04-02T07:31:47.900Z,39.99
2023-04-02T07:34:54.467Z,38.39
2023-04-02T07:37:56.753Z,38.80
2023-04-02T07:41:07.383Z,37.90
2023-04-02T07:44:10.972Z,38.58
2023-04-02T07:47:13.246Z,39.15
2023-04-02T07:50:20.401Z,40.20
2023-04-02T07:53:29.986Z,41.23
2023-04-02T07:56:35.981Z,41.07
2023-04-02T07:59:40.405Z,41.40
2023-04-02T08:02:43.003Z,40.82
2023-04-02T08:05:53.695Z,41.16
2023-04-02T08:08:57.712Z,41.94
2023-04-02T08:11:59.976Z,41.60
2023-04-02T08:15:03.190Z,39.80
2023-04-02T08:18:08.044Z,38.92
2023-04-02T08:21:13.742Z,38.84
2023-04-02T08:24:20.083Z,39.93
2023-04-02T08:27:28.572Z,39.93
2023-04-02T08:30:31.257Z,40.69
2023-04-02T08:33:38.842Z,41.71
2023-04-02T08:36:44.221Z,41.84
2023-04-02T08:39:50.912Z,41.18
2023-04-02T08:42:59.567Z,42.70
2023-04-02T08:46:31.029Z,42.03
2023-04-02T08:49:42.221Z,41.49
2023-04-02T08:52:46.819Z,41.38
2023-04-02T08:56:05.688Z,40.80
2023-04-02T08:59:29.117Z,39.10
2023-04-02T09:02:43.579Z,35.99
2023-04-02T09:05:50.424Z,36.53
2023-04-02T09:08:57.259Z,33.17
2023-04-02T09:12:04.304Z,33.63
2023-04-02T09:15:18.377Z,31.93
2023-04-02T09:18:23.283Z,34.44
2023-04-02T09:21:41.308Z,36.89
2023-04-02T09:24:53.676Z,37.38
2023-04-02T09:27:58.083Z,38.36
2023-04-02T09:31:17.059Z,39.53
2023-04-02T09:34:36.625Z,39.75
2023-04-02T09:37:40.440Z,39.73
2023-04-02T09:40:54.769Z,41.02
2023-04-02T09:44:23.469Z,41.09
2023-04-02T09:47:27.354Z,41.06
2023-04-02T09:50:36.105Z,41.34
2023-04-02T09:53:46.682Z,42.18
2023-04-02T09:57:01.747Z,42.33
2023-04-02T10:00:31.407Z,44.11
2023-04-02T10:03:51.421Z,43.41
2023-04-02T10:06:57.889Z,43.63
2023-04-02T10:10:34.641Z,42.45
2023-04-02T10:13:54.409Z,41.44
2023-04-02T10:17:10.090Z,42.43
2023-04-02T10:20:27.313Z,43.57
2023-04-02T10:23:31.984Z,42.83
2023-04-02T10:26:47.498Z,43.23
2023-04-02T10:30:14.748Z,41.66
2023-04-02T10:33:24.260Z,40.58
2023-04-02T10:36:54.659Z,41.71
2023-04-02T10:40:42.287Z,41.24
2023-04-02T10:43:59.302Z,42.82
2023-04-02T10:47:22.437Z,42.59
2023-04-02T10:50:35.968Z,42.77
2023-04-02T10:54:04.879Z,42.68
2023-04-02T10:57:07.217Z,42.17
2023-04-02T11:00:15.949Z,43.88
2023-04-02T11:03:36.613Z,43.05
2023-04-02T11:06:47.141Z,43.46
2023-04-02T11:09:53.340Z,42.74
2023-04-02T11:13:07.859Z,42.97
2023-04-02T11:16:16.537Z,43.15
2023-04-02T11:19:18.989Z,44.30
2023-04-02T11:22:27.433Z,44.81
2023-04-02T11:25:29.740Z,44.40
2023-04-02T11:28:34.346Z,41.94
2023-04-02T11:31:36.965Z,40.48
2023-04-02T11:34:42.866Z,39.80
2023-04-02T11:37:46.148Z,39.37
2023-04-02T11:41:00.780Z,39.83
2023-04-02T11:44:03.178Z,40.14
2023-04-02T11:47:18.069Z,40.70
2023-04-02T11:50:34.760Z,40.96
2023-04-02T11:53:37.348Z,41.36
2023-04-02T11:57:05.164Z,40.46
2023-04-02T12:00:33.223Z,41.24
2023-04-02T12:04:06.089Z,41.53
2023-04-02T12:07:35.948Z,41.83
2023-04-02T12:10:53.659Z,42.10
2023-04-02T12:13:58.532Z,41.80
2023-04-02T12:17:02.654Z,40.42
2023-04-02T12:20:10.331Z,40.84
2023-04-02T12:23:22.140Z,39.84
2023-04-02T12:26:37.089Z,40.09
2023-04-02T12:29:39.338Z,40.66
2023-04-02T12:32:41.910Z,39.55
2023-04-02T12:35:45.600Z,38.06
2023-04-02T12:38:54.421Z,38.75
2023-04-02T12:41:57.731Z,39.01
2023-04-02T12:45:01.094Z,40.33
2023-04-02T12:48:06.185Z,42.35
2023-04-02T12:51:10.683Z,40.45
2023-04-02T12:54:20.709Z,41.24
2023-04-02T12:57:26.198Z,43.28
2023-04-02T13:00:32.293Z,44.12
2023-04-02T13:03:37.946Z,44.39
2023-04-02T13:06:47.467Z,44.19
2023-04-02T13:09:56.581Z,44.15
2023-04-02T13:13:03.529Z,44.15
2023-04-02T13:16:14.979Z,43.39
2023-04-02T13:19:17.108Z,43.69
2023-04-02T13:22:34.372Z,42.99
2023-04-02T13:25:39.102Z,42.51
2023-04-02T13:28:43.724Z,42.57
2023-04-02T13:31:46.037Z,42.60
2023-04-02T13:34:48.348Z,42.68
2023-04-02T13:37:52.915Z,42.74
2023-04-02T13:40:55.414Z,42.21
2023-04-02T13:44:00.670Z,42.84
2023-04-02T13:47:03.081Z,42.87
2023-04-02T13:50:05.709Z,43.40
2023-04-02T13:53:13.151Z,43.61
2023-04-02T13:56:15.549Z,42.79
2023-04-02T13:59:18.023Z,40.86
2023-04-02T14:02:25.617Z,40.45
2023-04-02T14:05:58.738Z,40.25
2023-04-02T14:09:04.205Z,40.38
2023-04-02T14:12:36.186Z,40.51
2023-04-02T14:16:01.918Z,42.07
2023-04-02T14:19:25.566Z,42.05
2023-04-02T14:22:42.748Z,42.36
2023-04-02T14:26:16.028Z,43.01
2023-04-02T14:29:40.270Z,43.11
2023-04-02T14:33:01.446Z,43.15
2023-04-02T14:36:11.414Z,41.31
2023-04-02T14:39:19.656Z,42.52
2023-04-02T14:42:27.576Z,44.61
2023-04-02T14:45:51.746Z,45.67
2023-04-02T14:48:59.238Z,46.07
2023-04-02T14:52:06.762Z,44.90
2023-04-02T14:55:21.639Z,45.51
2023-04-02T14:58:33.410Z,46.86
2023-04-02T15:01:43.269Z,48.26
2023-04-02T15:05:01.837Z,49.01
2023-04-02T15:08:30.552Z,50.24
2023-04-02T15:11:39.356Z,51.70
2023-04-02T15:14:52.440Z,52.16
2023-04-02T15:17:54.765Z,53.74
2023-04-02T15:21:31.460Z,55.63
2023-04-02T15:24:58.641Z,58.29
2023-04-02T15:28:07.303Z,59.13
2023-04-02T15:31:15.901Z,58.67
2023-04-02T15:34:32.037Z,61.43
2023-04-02T15:38:22.706Z,62.92
2023-04-02T15:41:32.931Z,64.07
2023-04-02T15:44:44.346Z,65.99
2023-04-02T15:48:07.923Z,64.88
2023-04-02T15:51:28.359Z,65.27
2023-04-02T15:54:42.378Z,65.60
2023-04-02T15:58:03.555Z,67.31
2023-04-02T16:01:18.784Z,66.48
2023-04-02T16:04:24.191Z,66.61
2023-04-02T16:07:52.065Z,66.35
2023-04-02T16:10:54.403Z,67.27
2023-04-02T16:14:18.286Z,65.95
2023-04-02T16:17:36.942Z,68.55
2023-04-02T16:20:47.454Z,67.45
2023-04-02T16:23:53.302Z,67.86
2023-04-02T16:27:14.808Z,67.92
2023-04-02T16:30:37.447Z,66.74
2023-04-02T16:34:09.440Z,66.11
2023-04-02T16:37:33.533Z,65.88
2023-04-02T16:41:08.840Z,64.03
2023-04-02T16:44:59.778Z,63.69
2023-04-02T16:48:15.497Z,64.88
2023-04-02T16:51:35.303Z,66.21
2023-04-02T16:54:49.136Z,66.11
2023-04-02T16:58:23.866Z,66.46
2023-04-02T17:01:45.026Z,65.59
2023-04-02T17:05:02.026Z,65.93
2023-04-02T17:08:28.790Z,65.92
2023-04-02T17:11:43.134Z,67.31
2023-04-02T17:15:05.790Z,64.34
2023-04-02T17:18:21.744Z,59.36
2023-04-02T17:21:26.525Z,59.27
2023-04-02T17:24:53.865Z,56.99
2023-04-02T17:27:56.880Z,57.23
2023-04-02T17:31:04.203Z,57.39
2023-04-02T17:34:24.315Z,56.10
2023-04-02T17:37:27.674Z,53.91
2023-04-02T17:40:43.166Z,54.85
2023-04-02T17:43:46.177Z,54.00
2023-04-02T17:47:00.885Z,52.11
2023-04-02T17:50:12.271Z,53.80
2023-04-02T17:53:36.872Z,53.54
2023-04-02T17:57:13.172Z,51.92
2023-04-02T18:00:33.559Z,53.03
2023-04-02T18:03:38.420Z,53.50
2023-04-02T18:06:52.072Z,53.05
2023-04-02T18:10:03.309Z,53.61
2023-04-02T18:13:08.250Z,54.54
2023-04-02T18:16:17.152Z,53.29
2023-04-02T18:19:50.127Z,53.35
2023-04-02T18:23:01.373Z,54.00
2023-04-02T18:26:06.571Z,53.39
2023-04-02T18:29:55.765Z,54.03
2023-04-02T18:33:29.727Z,53.75
2023-04-02T18:36:41.085Z,52.61
2023-04-02T18:39:49.265Z,52.38
2023-04-02T18:43:06.692Z,51.97
2023-04-02T18:46:22.800Z,53.08
2023-04-02T18:49:47.224Z,52.84
2023-04-02T18:52:50.856Z,53.58
2023-04-02T18:56:07.433Z,53.03
2023-04-02T18:59:15.709Z,53.00
2023-04-02T19:02:23.561Z,52.35
2023-04-02T19:05:41.405Z,52.55
2023-04-02T19:09:11.196Z,52.88
2023-04-02T19:12:19.353Z,53.88
2023-04-02T19:15:26.446Z,53.27
2023-04-02T19:18:51.223Z,53.21
2023-04-02T19:22:11.980Z,52.66
2023-04-02T19:25:33.073Z,53.63
2023-04-02T19:29:00.052Z,52.82
2023-04-02T19:32:12.975Z,53.19
2023-04-02T19:35:26.968Z,53.97
2023-04-02T19:38:44.580Z,52.90
2023-04-02T19:41:52.403Z,53.32
2023-04-02T19:44:59.489Z,54.57
2023-04-02T19:48:28.241Z,53.48
2023-04-02T19:51:33.588Z,53.93
2023-04-02T19:54:41.038Z,53.74
2023-04-02T19:57:46.406Z,54.17
2023-04-02T20:00:53.439Z,54.25
2023-04-02T20:03:55.741Z,53.61
2023-04-02T20:07:00.603Z,54.04
2023-04-02T20:10:05.566Z,54.38
2023-04-02T20:13:10.894Z,53.62
2023-04-02T20:16:14.515Z,54.40
2023-04-02T20:19:16.933Z,54.59
2023-04-02T20:22:19.286Z,54.81
2023-04-02T20:25:24.045Z,54.43
2023-04-02T20:28:30.096Z,54.84
2023-04-02T20:31:36.211Z,54.82
2023-04-02T20:34:39.140Z,55.35
2023-04-02T20:37:42.130Z,55.10
2023-04-02T20:40:45.313Z,55.55
2023-04-02T20:43:47.855Z,55.74
2023-04-02T20:46:52.719Z,54.95
2023-04-02T20:49:55.140Z,55.09
2023-04-02T20:53:01.666Z,56.17
2023-04-02T20:56:07.324Z,55.79
2023-04-02T20:59:09.539Z,55.83
2023-04-02T21:02:12.149Z,55.46
2023-04-02T21:05:14.505Z,55.29
2023-04-02T21:08:16.832Z,56.30
2023-04-02T21:11:19.933Z,56.35
2023-04-02T21:14:24.792Z,56.46
2023-04-02T21:17:30.049Z,56.74
2023-04-02T21:20:33.411Z,55.74
2023-04-02T21:23:38.693Z,56.56
2023-04-02T21:26:43.759Z,56.22
2023-04-02T21:29:48.036Z,56.36
2023-04-02T21:32:50.343Z,57.02
2023-04-02T21:35:55.992Z,57.38
2023-04-02T21:39:01.061Z,58.26
2023-04-02T21:42:03.688Z,59.51
2023-04-02T21:45:09.262Z,60.30
2023-04-02T21:48:11.656Z,59.83
2023-04-02T21:51:16.812Z,59.41
2023-04-02T21:54:22.295Z,57.16
2023-04-02T21:57:31.675Z,57.48
2023-04-02T22:00:34.038Z,57.51
2023-04-02T22:03:39.500Z,57.04
2023-04-02T22:06:42.556Z,56.78
2023-04-02T22:09:44.755Z,57.07
2023-04-02T22:12:49.474Z,56.22
2023-04-02T22:16:00.232Z,57.41
2023-04-02T22:19:08.764Z,56.42
2023-04-02T22:22:14.243Z,56.64
2023-04-02T22:25:16.871Z,56.73
2023-04-02T22:28:22.143Z,56.82
2023-04-02T22:31:29.481Z,56.05
2023-04-02T22:34:38.736Z,55.95
2023-04-02T22:37:41.111Z,55.17
2023-04-02T22:40:45.941Z,55.75
2023-04-02T22:43:48.948Z,56.10
2023-04-02T22:46:53.938Z,54.75
2023-04-02T22:49:58.976Z,54.46
2023-04-02T22:53:01.376Z,54.80
2023-04-02T22:56:13.279Z,54.91
2023-04-02T22:59:15.585Z,54.84
2023-04-02T23:02:17.938Z,55.05
2023-04-02T23:05:20.899Z,54.63
2023-04-02T23:08:25.600Z,55.08
2023-04-02T23:11:28.747Z,54.98
2023-04-02T23:14:31.060Z,54.86
2023-04-02T23:17:38.386Z,54.50
2023-04-02T23:20:41.146Z,55.30
2023-04-02T23:23:49.279Z,54.56
2023-04-02T23:26:57.168Z,54.21
2023-04-02T23:30:01.762Z,54.36
2023-04-02T23:33:04.827Z,54.33
2023-04-02T23:36:17.082Z,54.31
2023-04-02T23:39:22.988Z,53.97
2023-04-02T23:42:28.414Z,53.90
2023-04-02T23:45:33.663Z,54.11
2023-04-02T23:48:35.936Z,54.34
2023-04-02T23:51:40.924Z,54.12
2023-04-02T23:54:45.691Z,53.46
2023-04-02T23:57:50.032Z,53.82
